Time;durP1;ratioP1;P1;durP2;ratioP2;P2;SDS_P1;SDS_P2;PMS_P1;PMS_P2;Temp;Humidity;BMP_temperature;BMP_pressure;BME280_temperature;BME280_humidity;BME280_pressure;Samples;Min_cycle;Max_cycle;Signal;HPM_P1;HPM_P2
2022/07/19 00:02:10;;;;;;;23.27;7.82;;;;;;;22.42;50.66;101414.19;5073295;28;20041;-59
2022/07/19 00:04:39;;;;;;;21.20;6.22;;;;;;;22.35;50.71;101416.09;5073209;28;20044;-59
2022/07/19 00:07:06;;;;;;;17.60;6.18;;;;;;;22.35;50.60;101415.28;5073670;28;20123;-59
2022/07/19 00:09:33;;;;;;;16.48;6.03;;;;;;;22.40;50.57;101412.78;5073310;28;20448;-59
2022/07/19 00:11:59;;;;;;;15.43;5.65;;;;;;;22.41;50.23;101409.00;5072378;28;20537;-59
2022/07/19 00:14:26;;;;;;;17.80;6.10;;;;;;;22.42;50.07;101407.97;5073448;28;20048;-59
2022/07/19 00:16:53;;;;;;;16.30;6.22;;;;;;;22.47;49.77;101407.34;5073451;28;20131;-59
2022/07/19 00:19:19;;;;;;;17.50;5.82;;;;;;;22.43;50.13;101405.06;5073473;28;20083;-59
2022/07/19 00:21:46;;;;;;;19.08;6.32;;;;;;;22.43;49.87;101406.94;5073566;28;20048;-59
2022/07/19 00:24:13;;;;;;;18.40;6.00;;;;;;;22.40;49.47;101410.88;5073293;28;20049;-59
2022/07/19 00:26:40;;;;;;;21.85;6.30;;;;;;;22.47;49.13;101404.63;5073372;28;20049;-59
2022/07/19 00:29:07;;;;;;;21.60;6.30;;;;;;;22.47;48.86;101400.03;5073547;28;20044;-59
2022/07/19 00:31:34;;;;;;;14.70;5.90;;;;;;;22.46;48.82;101402.97;5072279;28;20536;-59
2022/07/19 00:34:01;;;;;;;17.83;5.85;;;;;;;22.47;49.20;101400.03;5073282;28;20521;-58
2022/07/19 00:36:27;;;;;;;16.35;5.85;;;;;;;22.48;49.19;101401.69;5073389;28;20040;-58
2022/07/19 00:38:54;;;;;;;18.70;6.40;;;;;;;22.45;49.16;101401.28;5073357;28;20075;-58
2022/07/19 00:41:21;;;;;;;16.35;5.97;;;;;;;22.43;49.28;101396.94;5073300;28;20051;-58
2022/07/19 00:43:50;;;;;;;15.95;6.25;;;;;;;22.40;49.06;101399.25;5073029;28;20113;-58
2022/07/19 00:46:20;;;;;;;16.25;6.15;;;;;;;22.36;49.35;101400.75;5073331;28;20139;-58
2022/07/19 00:48:48;;;;;;;18.58;5.70;;;;;;;22.34;49.23;101397.41;5073311;28;20505;-58
2022/07/19 00:51:17;;;;;;;18.40;5.72;;;;;;;22.30;49.81;101396.19;5073098;28;20048;-58
2022/07/19 00:53:44;;;;;;;22.20;5.85;;;;;;;22.26;49.88;101403.03;5072993;28;20045;-58
2022/07/19 00:56:12;;;;;;;12.43;5.50;;;;;;;22.20;50.05;101394.75;5073266;28;20486;-58
2022/07/19 00:58:41;;;;;;;16.25;6.00;;;;;;;22.17;50.36;101395.16;5073167;28;20127;-58
2022/07/19 01:01:09;;;;;;;15.85;6.63;;;;;;;22.12;50.56;101392.31;5072351;28;20165;-59
2022/07/19 01:03:39;;;;;;;20.30;5.93;;;;;;;22.07;50.73;101389.41;5072741;28;20051;-58
2022/07/19 01:06:08;;;;;;;13.77;5.40;;;;;;;22.08;51.00;101387.53;5073050;28;20128;-58
2022/07/19 01:08:36;;;;;;;14.82;5.82;;;;;;;22.03;51.19;101393.59;5073069;28;20094;-59
2022/07/19 01:11:05;;;;;;;19.17;6.20;;;;;;;21.97;51.53;101397.94;5073022;28;20078;-59
2022/07/19 01:13:33;;;;;;;16.10;6.15;;;;;;;21.94;50.76;101386.75;5072775;28;20044;-58
2022/07/19 01:16:00;;;;;;;22.75;6.50;;;;;;;21.91;51.59;101379.91;5072557;28;20509;-58
2022/07/19 01:18:27;;;;;;;17.92;6.13;;;;;;;21.85;51.30;101373.50;5073009;28;20117;-58
2022/07/19 01:20:56;;;;;;;21.15;6.53;;;;;;;21.82;51.86;101383.91;5072784;28;20052;-59
2022/07/19 01:23:23;;;;;;;19.02;6.45;;;;;;;21.79;51.89;101382.47;5088852;28;20052;-59
2022/07/19 01:25:50;;;;;;;15.18;5.90;;;;;;;21.75;52.15;101383.91;5072811;28;20482;-59
2022/07/19 01:28:17;;;;;;;17.17;6.47;;;;;;;21.70;52.68;101382.88;5072839;28;20538;-59
2022/07/19 01:30:44;;;;;;;14.82;6.10;;;;;;;21.67;52.34;101382.28;5072494;28;20074;-58
2022/07/19 01:33:11;;;;;;;15.60;5.95;;;;;;;21.65;53.04;101384.38;5072242;28;20048;-58
2022/07/19 01:35:38;;;;;;;20.48;6.28;;;;;;;21.62;53.17;101375.84;5071335;28;20072;-58
2022/07/19 01:38:06;;;;;;;20.23;6.15;;;;;;;21.58;53.26;101377.34;5072832;28;20052;-58
2022/07/19 01:40:33;;;;;;;17.33;6.05;;;;;;;21.56;53.71;101376.72;5075813;28;20036;-57
2022/07/19 01:43:00;;;;;;;15.65;5.80;;;;;;;21.53;53.82;101374.44;5076280;28;20546;-58
2022/07/19 01:45:27;;;;;;;25.98;6.38;;;;;;;21.45;53.17;101380.91;5076004;28;20086;-58
2022/07/19 01:47:53;;;;;;;21.00;6.53;;;;;;;21.47;53.51;101376.94;5075855;28;20520;-59
2022/07/19 01:50:20;;;;;;;20.65;6.35;;;;;;;21.49;53.96;101379.44;5076341;28;20072;-58
2022/07/19 01:52:47;;;;;;;18.83;6.45;;;;;;;21.42;53.71;101376.69;5076153;28;20045;-58
2022/07/19 01:55:15;;;;;;;17.92;6.43;;;;;;;21.43;53.88;101372.16;5075631;28;20041;-58
2022/07/19 01:57:42;;;;;;;17.38;6.35;;;;;;;21.42;53.31;101376.69;5076182;28;20044;-58
2022/07/19 02:00:10;;;;;;;22.60;6.60;;;;;;;21.41;53.49;101364.25;5075896;28;20498;-57
2022/07/19 02:02:49;;;;;;;17.38;6.68;;;;;;;21.40;53.94;101372.56;5111319;27;20387;-58
2022/07/19 02:05:16;;;;;;;18.23;6.82;;;;;;;21.39;53.36;101369.03;5110785;28;20051;-58
2022/07/19 02:07:43;;;;;;;15.65;6.20;;;;;;;21.39;53.69;101365.50;5111350;28;20070;-57
2022/07/19 02:10:10;;;;;;;18.10;6.18;;;;;;;21.38;52.89;101364.66;5111293;28;20047;-57
2022/07/19 02:12:37;;;;;;;11.48;5.88;;;;;;;21.36;53.09;101360.53;5111192;28;20068;-57
2022/07/19 02:15:05;;;;;;;20.20;6.25;;;;;;;21.37;51.99;101365.69;5110860;28;20081;-59
2022/07/19 02:17:32;;;;;;;14.18;5.75;;;;;;;21.36;52.63;101374.03;5111026;28;20048;-59
2022/07/19 02:19:58;;;;;;;17.10;6.20;;;;;;;21.33;52.53;101372.56;5111108;28;20490;-59
2022/07/19 02:22:25;;;;;;;20.63;5.82;;;;;;;21.33;52.89;101369.03;5110731;28;20040;-58
2022/07/19 02:24:52;;;;;;;15.18;5.50;;;;;;;21.33;52.57;101369.88;5110644;28;20044;-59
2022/07/19 02:27:19;;;;;;;23.67;7.60;;;;;;;21.28;52.56;101366.97;5111095;28;20047;-60
2022/07/19 02:29:46;;;;;;;13.90;5.68;;;;;;;21.24;52.52;101369.25;5110832;28;20040;-60
2022/07/19 02:32:13;;;;;;;16.63;5.70;;;;;;;21.21;52.42;101366.13;5109527;28;20062;-62
2022/07/19 02:34:39;;;;;;;16.27;6.00;;;;;;;21.26;52.56;101363.66;5110478;28;20048;-58
2022/07/19 02:37:06;;;;;;;19.98;6.20;;;;;;;21.25;52.59;101362.84;5110814;28;20071;-59
2022/07/19 02:39:33;;;;;;;16.80;5.90;;;;;;;21.22;52.35;101362.41;5110495;28;20047;-59
2022/07/19 02:42:01;;;;;;;14.50;5.60;;;;;;;21.19;52.34;101365.53;5109175;28;20046;-59
2022/07/19 02:44:28;;;;;;;20.02;5.68;;;;;;;21.19;51.86;101363.69;5110441;28;20109;-57
2022/07/19 02:46:54;;;;;;;16.73;5.72;;;;;;;21.21;52.12;101367.00;5110347;28;20109;-60
2022/07/19 02:49:21;;;;;;;15.35;5.80;;;;;;;21.19;52.01;101368.22;5110216;28;20094;-59
2022/07/19 02:51:48;;;;;;;18.30;6.13;;;;;;;21.15;52.18;101365.13;5110453;28;20040;-59
2022/07/19 02:54:14;;;;;;;13.50;5.95;;;;;;;21.11;52.20;101361.19;5109935;28;20035;-58
2022/07/19 02:56:41;;;;;;;13.43;5.90;;;;;;;21.08;52.06;101362.44;5110442;28;20518;-58
2022/07/19 02:59:08;;;;;;;18.52;5.50;;;;;;;20.98;51.16;101367.41;5110068;28;20522;-58
2022/07/19 03:01:34;;;;;;;12.85;5.45;;;;;;;21.00;50.92;101367.22;5110072;28;20054;-58
2022/07/19 03:04:01;;;;;;;11.02;5.20;;;;;;;21.04;51.03;101365.75;5109711;28;20082;-58
2022/07/19 03:06:28;;;;;;;15.35;5.05;;;;;;;21.04;51.04;101363.88;5110012;28;20062;-58
2022/07/19 03:08:56;;;;;;;16.73;5.88;;;;;;;21.01;50.75;101363.47;5110038;28;20063;-58
2022/07/19 03:11:23;;;;;;;13.70;5.32;;;;;;;21.03;50.69;101364.09;5110063;28;20047;-59
2022/07/19 03:13:50;;;;;;;11.95;4.97;;;;;;;21.02;50.90;101363.25;5096833;28;20044;-58
2022/07/19 03:16:16;;;;;;;14.88;5.35;;;;;;;20.98;51.09;101359.31;5096287;28;20094;-58
2022/07/19 03:18:43;;;;;;;16.48;5.30;;;;;;;21.02;50.87;101357.88;5096170;28;20044;-58
2022/07/19 03:21:10;;;;;;;12.35;5.32;;;;;;;20.99;51.49;101365.53;5096238;28;20037;-59
2022/07/19 03:23:37;;;;;;;14.05;5.18;;;;;;;20.95;51.30;101365.13;5096336;28;20047;-58
2022/07/19 03:26:06;;;;;;;13.85;5.28;;;;;;;20.94;51.20;101362.63;5095910;28;20040;-58
2022/07/19 03:28:33;;;;;;;12.00;5.22;;;;;;;20.90;51.39;101367.59;5096164;28;20048;-58
2022/07/19 03:31:00;;;;;;;10.90;5.15;;;;;;;20.88;51.24;101362.44;5095493;28;20044;-60
2022/07/19 03:33:28;;;;;;;20.23;5.40;;;;;;;20.87;51.83;101357.25;5096196;28;20068;-58
2022/07/19 03:35:55;;;;;;;16.02;5.28;;;;;;;20.83;52.04;101356.84;5095821;28;20064;-58
2022/07/19 03:38:22;;;;;;;22.30;5.35;;;;;;;20.82;51.43;101363.25;5095668;28;20097;-59
2022/07/19 03:40:48;;;;;;;14.45;5.47;;;;;;;20.76;51.17;101363.28;5096636;28;20502;-59
2022/07/19 03:43:16;;;;;;;15.63;5.30;;;;;;;20.72;51.93;101362.84;5094543;28;20050;-58
2022/07/19 03:45:44;;;;;;;16.08;5.40;;;;;;;20.71;51.97;101361.19;5095866;28;20068;-60
2022/07/19 03:48:12;;;;;;;13.10;5.20;;;;;;;20.62;52.37;101365.13;5095534;28;20409;-60
2022/07/19 03:50:39;;;;;;;15.75;4.95;;;;;;;20.53;52.71;101359.88;5095906;28;20059;-59
2022/07/19 03:53:07;;;;;;;13.35;5.28;;;;;;;20.57;52.54;101356.78;5095667;28;20036;-58
2022/07/19 03:55:34;;;;;;;15.75;5.35;;;;;;;20.49;52.23;101357.81;5095327;28;20073;-60
2022/07/19 03:58:00;;;;;;;16.13;5.00;;;;;;;20.57;52.27;101357.59;5095577;28;20056;-59
2022/07/19 04:00:27;;;;;;;14.13;5.18;;;;;;;20.52;52.22;101362.81;5094107;28;20074;-57
2022/07/19 04:02:54;;;;;;;11.05;4.82;;;;;;;20.51;52.01;101350.34;5095090;28;20545;-58
2022/07/19 04:05:20;;;;;;;17.80;5.55;;;;;;;20.54;52.03;101355.34;5093605;28;20135;-58
2022/07/19 04:07:47;;;;;;;15.80;5.50;;;;;;;20.48;51.87;101354.28;5095469;28;20508;-59
2022/07/19 04:10:15;;;;;;;11.38;5.28;;;;;;;20.52;51.67;101360.94;5095273;28;20165;-63
2022/07/19 04:12:41;;;;;;;22.13;5.30;;;;;;;20.53;51.55;101361.75;5095393;28;20044;-58
2022/07/19 04:15:09;;;;;;;14.57;5.15;;;;;;;20.47;51.80;101363.41;5094021;28;20048;-58
2022/07/19 04:17:36;;;;;;;14.95;5.10;;;;;;;20.50;51.83;101363.00;5095135;28;20051;-58
2022/07/19 04:20:04;;;;;;;15.27;5.20;;;;;;;20.46;50.50;101359.03;5093794;28;20044;-59
2022/07/19 04:22:32;;;;;;;13.65;4.88;;;;;;;20.51;50.85;101364.66;5095157;28;20080;-58
2022/07/19 04:24:58;;;;;;;14.60;5.10;;;;;;;20.55;50.98;101364.25;5093937;28;20040;-59
2022/07/19 04:27:25;;;;;;;15.88;4.80;;;;;;;20.57;50.04;101364.88;5095096;28;20536;-58
2022/07/19 04:29:51;;;;;;;15.35;5.00;;;;;;;20.57;50.50;101356.78;5093827;28;20081;-59
2022/07/19 04:32:18;;;;;;;9.60;4.22;;;;;;;20.58;50.71;101358.47;5094178;28;20048;-58
2022/07/19 04:34:47;;;;;;;10.82;4.60;;;;;;;20.60;50.47;101364.47;5094730;28;20051;-58
2022/07/19 04:37:13;;;;;;;16.10;4.75;;;;;;;20.59;50.61;101369.03;5094924;28;20508;-59
2022/07/19 04:39:40;;;;;;;10.25;4.45;;;;;;;20.64;50.20;101360.34;5094736;28;20097;-59
2022/07/19 04:42:08;;;;;;;14.80;4.65;;;;;;;20.68;50.97;101364.28;5094613;28;20101;-58
2022/07/19 04:44:34;;;;;;;10.95;4.57;;;;;;;20.67;50.60;101359.94;5093503;28;20044;-58
2022/07/19 04:47:01;;;;;;;17.98;5.10;;;;;;;20.71;50.29;101359.31;5094581;28;20555;-59
2022/07/19 04:49:28;;;;;;;13.82;4.55;;;;;;;20.71;50.59;101361.19;5093492;28;20044;-58
2022/07/19 04:51:55;;;;;;;15.07;4.30;;;;;;;20.74;50.62;101360.78;5094483;28;20509;-58
2022/07/19 04:54:22;;;;;;;16.13;5.22;;;;;;;20.79;49.74;101355.59;5093373;28;20048;-59
2022/07/19 04:56:48;;;;;;;14.85;5.10;;;;;;;20.79;50.86;101352.91;5094522;28;20048;-59
2022/07/19 04:59:15;;;;;;;12.25;4.38;;;;;;;20.86;50.77;101360.97;5094229;28;20550;-59
2022/07/19 05:01:42;;;;;;;14.73;5.10;;;;;;;20.82;50.38;101351.66;5093751;28;20044;-58
2022/07/19 05:04:11;;;;;;;18.40;4.95;;;;;;;20.86;50.10;101355.59;5093818;28;20044;-58
2022/07/19 05:06:38;;;;;;;14.10;5.45;;;;;;;20.88;50.61;101353.50;5093956;28;20402;-58
2022/07/19 05:09:04;;;;;;;16.55;4.60;;;;;;;20.92;50.20;101349.38;5094034;28;20558;-58
2022/07/19 05:11:32;;;;;;;15.48;5.22;;;;;;;20.92;50.54;101352.06;5092879;28;20552;-58
2022/07/19 05:13:59;;;;;;;14.55;4.90;;;;;;;20.95;50.63;101350.81;5092494;28;20039;-58
2022/07/19 05:16:25;;;;;;;14.35;5.95;;;;;;;20.95;49.74;101357.03;5093910;28;20043;-59
2022/07/19 05:18:52;;;;;;;15.68;5.38;;;;;;;20.99;50.37;101354.75;5094134;28;20524;-58
2022/07/19 05:21:19;;;;;;;14.32;5.00;;;;;;;20.98;49.98;101362.03;5093891;28;20461;-58
2022/07/19 05:23:45;;;;;;;14.90;4.68;;;;;;;21.03;50.26;101350.63;5093828;28;20043;-58
2022/07/19 05:26:12;;;;;;;18.67;4.95;;;;;;;21.05;50.34;101354.75;5093761;28;20040;-59
2022/07/19 05:28:39;;;;;;;10.73;4.65;;;;;;;21.07;50.39;101357.25;5093865;28;20498;-58
2022/07/19 05:31:06;;;;;;;12.38;4.80;;;;;;;21.11;50.18;101354.97;5093535;28;20044;-59
2022/07/19 05:33:33;;;;;;;16.58;5.40;;;;;;;21.07;50.46;101363.47;5093377;28;20044;-59
2022/07/19 05:35:59;;;;;;;13.95;5.22;;;;;;;21.08;50.31;101356.19;5092927;28;20400;-59
2022/07/19 05:38:26;;;;;;;12.00;5.43;;;;;;;21.18;50.40;101356.63;5093882;28;20065;-59
2022/07/19 05:40:53;;;;;;;12.13;4.78;;;;;;;21.18;50.54;101361.19;5093709;28;20044;-59
2022/07/19 05:43:20;;;;;;;12.20;4.65;;;;;;;21.24;50.58;101360.34;5091992;28;20060;-59
2022/07/19 05:45:46;;;;;;;15.88;5.00;;;;;;;21.27;50.50;101358.06;5093658;28;20573;-59
2022/07/19 05:48:13;;;;;;;15.13;4.68;;;;;;;21.36;49.23;101355.97;5093614;28;20048;-60
2022/07/19 05:50:39;;;;;;;16.05;4.50;;;;;;;21.41;50.09;101363.41;5093175;28;20036;-61
2022/07/19 05:53:06;;;;;;;18.58;4.68;;;;;;;21.45;50.07;101359.31;5093283;28;20398;-60
2022/07/19 05:55:33;;;;;;;17.25;4.80;;;;;;;21.57;48.41;101354.88;5093567;28;20498;-59
2022/07/19 05:57:59;;;;;;;12.05;4.40;;;;;;;21.59;49.80;101355.53;5093160;28;20497;-60
2022/07/19 06:00:26;;;;;;;12.48;4.63;;;;;;;21.64;48.29;101358.41;5093258;28;20077;-57
2022/07/19 06:02:53;;;;;;;13.13;4.55;;;;;;;21.71;48.42;101355.69;5093513;28;20478;-58
2022/07/19 06:05:20;;;;;;;11.48;4.88;;;;;;;21.79;48.61;101355.47;5092680;28;20062;-57
2022/07/19 06:07:47;;;;;;;14.07;4.88;;;;;;;21.93;47.34;101352.69;5093405;28;20052;-58
2022/07/19 06:10:13;;;;;;;12.52;4.20;;;;;;;21.97;47.04;101352.03;5093276;28;20036;-58
2022/07/19 06:12:41;;;;;;;12.10;4.03;;;;;;;22.05;46.14;101359.09;5093239;28;20124;-58
2022/07/19 06:15:08;;;;;;;13.50;4.47;;;;;;;22.13;47.20;101353.41;5092982;28;20044;-58
2022/07/19 06:17:35;;;;;;;13.07;4.57;;;;;;;22.17;47.18;101351.94;5093063;28;20176;-58
2022/07/19 06:20:02;;;;;;;16.80;4.55;;;;;;;22.17;47.67;101356.53;5092995;28;20097;-56
2022/07/19 06:22:31;;;;;;;9.60;4.00;;;;;;;22.33;45.77;101353.34;5093229;28;20066;-55
2022/07/19 06:24:58;;;;;;;14.85;4.40;;;;;;;22.38;46.12;101358.94;5092994;28;20047;-57
2022/07/19 06:27:25;;;;;;;11.68;4.20;;;;;;;22.46;46.61;101354.31;5093244;28;20451;-58
2022/07/19 06:29:52;;;;;;;11.60;4.30;;;;;;;22.51;45.28;101365.28;5093299;28;20044;-57
2022/07/19 06:32:18;;;;;;;9.52;4.00;;;;;;;22.49;44.82;101365.50;5092499;28;20041;-56
2022/07/19 06:34:45;;;;;;;13.75;4.78;;;;;;;22.59;44.64;101365.88;5093080;28;20044;-57
2022/07/19 06:37:12;;;;;;;14.80;4.20;;;;;;;22.63;44.34;101366.25;5093082;28;20056;-56
2022/07/19 06:39:39;;;;;;;13.43;4.15;;;;;;;22.70;43.93;101372.44;5093040;28;20076;-56
2022/07/19 06:42:06;;;;;;;10.60;4.43;;;;;;;22.79;44.30;101371.13;5093043;28;20079;-56
2022/07/19 06:44:34;;;;;;;21.30;5.05;;;;;;;22.83;43.89;101365.25;5092888;28;20044;-56
2022/07/19 06:47:00;;;;;;;14.65;4.40;;;;;;;22.90;44.63;101372.28;5091706;28;20101;-57
2022/07/19 06:49:27;;;;;;;13.73;3.95;;;;;;;23.02;43.25;101369.69;5095172;28;20040;-57
2022/07/19 06:51:54;;;;;;;15.38;5.22;;;;;;;23.10;43.53;101365.88;5096624;28;20121;-56
2022/07/19 06:54:20;;;;;;;19.30;5.00;;;;;;;23.16;42.91;101373.13;5096610;28;20044;-56
2022/07/19 06:56:48;;;;;;;14.18;5.30;;;;;;;23.21;43.69;101375.16;5096935;28;20048;-56
2022/07/19 06:59:14;;;;;;;17.40;5.00;;;;;;;23.22;43.76;101372.22;5096655;28;20040;-57
2022/07/19 07:01:41;;;;;;;18.23;5.15;;;;;;;23.31;43.41;101365.47;5094860;28;20048;-56
2022/07/19 07:04:08;;;;;;;13.73;4.85;;;;;;;23.39;43.57;101369.75;5096094;28;20135;-56
2022/07/19 07:06:35;;;;;;;17.05;5.30;;;;;;;23.51;42.15;101367.16;5096637;28;20159;-55
2022/07/19 07:09:02;;;;;;;18.65;4.93;;;;;;;23.53;42.57;101363.16;5086704;28;20371;-56
2022/07/19 07:11:29;;;;;;;17.92;5.68;;;;;;;23.65;41.95;101367.81;5076085;28;20052;-55
2022/07/19 07:13:56;;;;;;;23.50;5.72;;;;;;;23.72;41.62;101372.13;5075577;28;20589;-56
2022/07/19 07:16:23;;;;;;;16.23;5.38;;;;;;;23.79;41.45;101372.03;5076089;28;20123;-56
2022/07/19 07:18:49;;;;;;;17.00;5.43;;;;;;;23.89;41.63;101375.06;5076129;28;20049;-54
2022/07/19 07:21:16;;;;;;;18.10;5.43;;;;;;;23.97;41.34;101365.78;5075667;28;20086;-56
2022/07/19 07:23:43;;;;;;;22.27;5.70;;;;;;;24.09;40.26;101368.56;5082704;28;20075;-54
2022/07/19 07:26:09;;;;;;;15.50;5.25;;;;;;;24.15;40.39;101364.94;5095409;28;20498;-55
2022/07/19 07:28:36;;;;;;;18.48;5.43;;;;;;;24.34;40.31;101366.56;5095997;28;20055;-55
2022/07/19 07:31:03;;;;;;;25.02;5.50;;;;;;;24.43;40.07;101369.78;5095147;28;20486;-55
2022/07/19 07:33:30;;;;;;;28.55;7.82;;;;;;;24.50;39.24;101375.06;5095983;28;20051;-55
2022/07/19 07:36:00;;;;;;;21.52;5.28;;;;;;;24.71;38.94;101374.56;5096319;28;20082;-56
2022/07/19 07:38:27;;;;;;;25.38;7.68;;;;;;;24.83;38.89;101371.88;5095686;28;20443;-56
2022/07/19 07:40:54;;;;;;;36.83;17.20;;;;;;;24.93;38.47;101373.19;5095964;28;20097;-56
2022/07/19 07:43:31;;;;;;;31.33;7.88;;;;;;;25.01;38.20;101376.41;5091669;28;20514;-56
2022/07/19 07:45:58;;;;;;;20.02;5.72;;;;;;;25.00;38.10;101369.31;5080817;28;20478;-56
2022/07/19 07:48:25;;;;;;;34.45;11.48;;;;;;;25.14;38.48;101369.06;5074745;28;20136;-55
2022/07/19 07:50:51;;;;;;;24.73;6.95;;;;;;;25.26;37.55;101368.03;5081183;28;20040;-55
2022/07/19 07:53:18;;;;;;;51.63;23.30;;;;;;;25.52;36.86;101365.88;5078718;28;20040;-55
2022/07/19 07:55:45;;;;;;;29.75;13.57;;;;;;;25.50;37.26;101365.28;5078860;28;20316;-56
2022/07/19 07:58:13;;;;;;;33.53;5.95;;;;;;;25.62;36.64;101368.00;5093232;28;20040;-55
2022/07/19 08:00:40;;;;;;;24.05;7.78;;;;;;;25.70;36.69;101362.16;5095065;28;20087;-55
2022/07/19 08:03:07;;;;;;;27.38;6.72;;;;;;;25.90;35.83;101360.94;5094558;28;20067;-55
2022/07/19 08:05:34;;;;;;;30.60;14.15;;;;;;;25.81;37.35;101361.34;5094511;28;20052;-55
2022/07/19 08:08:01;;;;;;;27.05;12.50;;;;;;;25.83;36.97;101363.78;5095424;28;20444;-56
2022/07/19 08:10:32;;;;;;;24.73;7.32;;;;;;;25.90;36.40;101352.78;5095152;28;20562;-55
2022/07/19 08:12:59;;;;;;;22.95;5.45;;;;;;;26.06;35.54;101354.75;5095325;28;20040;-56
2022/07/19 08:15:28;;;;;;;21.08;7.07;;;;;;;26.27;35.20;101350.53;5095082;28;20080;-55
2022/07/19 08:17:55;;;;;;;15.88;4.72;;;;;;;26.48;34.97;101345.47;5095023;28;20040;-54
2022/07/19 08:20:22;;;;;;;20.10;7.05;;;;;;;26.50;35.25;101346.84;5095186;28;20389;-55
2022/07/19 08:22:48;;;;;;;15.95;6.07;;;;;;;26.56;34.42;101345.88;5094669;28;20051;-55
2022/07/19 08:25:16;;;;;;;19.25;5.93;;;;;;;26.72;34.61;101341.53;5094789;28;20405;-55
2022/07/19 08:27:44;;;;;;;15.65;4.30;;;;;;;26.81;34.19;101345.50;5078643;28;20102;-55
2022/07/19 08:30:12;;;;;;;22.17;4.95;;;;;;;26.93;34.04;101342.69;5094857;28;20047;-56
2022/07/19 08:32:40;;;;;;;14.80;4.82;;;;;;;27.06;34.07;101340.69;5091858;28;20064;-56
2022/07/19 08:35:09;;;;;;;14.20;5.35;;;;;;;27.17;34.44;101342.47;5087299;28;20036;-56
2022/07/19 08:37:36;;;;;;;23.10;6.07;;;;;;;27.38;33.11;101333.56;5093862;28;20055;-56
2022/07/19 08:40:05;;;;;;;14.82;5.13;;;;;;;27.58;32.67;101327.53;5093078;28;20052;-56
2022/07/19 08:42:32;;;;;;;15.95;4.75;;;;;;;27.66;32.34;101328.97;5094487;28;20050;-56
2022/07/19 08:45:04;;;;;;;17.05;5.25;;;;;;;27.68;32.18;101339.63;5092285;28;20040;-55
2022/07/19 08:47:31;;;;;;;18.15;4.38;;;;;;;27.77;31.88;101330.75;5094283;28;20051;-56
2022/07/19 08:50:00;;;;;;;19.08;4.35;;;;;;;28.04;32.13;101331.91;5093639;28;20074;-56
2022/07/19 08:52:26;;;;;;;14.02;4.20;;;;;;;27.99;31.84;101323.66;5094410;28;20044;-56
2022/07/19 08:54:56;;;;;;;13.88;5.35;;;;;;;28.09;31.82;101323.78;5089378;28;20109;-57
2022/07/19 09:00:12;;;;;;;11.30;3.80;;;;;;;28.59;31.03;101333.50;5094022;28;20051;-61
2022/07/19 09:03:06;;;;;;;19.95;4.68;;;;;;;28.78;30.73;101331.22;5082473;28;20048;-60
2022/07/19 09:05:34;;;;;;;17.95;4.90;;;;;;;28.93;31.31;101329.69;5098828;28;20039;-61
2022/07/19 09:08:10;;;;;;;17.67;4.20;;;;;;;29.16;28.93;101329.31;5094198;28;20055;-60
2022/07/19 09:10:41;;;;;;;21.23;5.15;;;;;;;29.26;29.66;101325.78;5104734;28;20493;-60
2022/07/19 09:13:12;;;;;;;23.17;4.40;;;;;;;29.44;30.11;101325.31;5102763;28;20495;-58
2022/07/19 09:15:47;;;;;;;14.70;4.38;;;;;;;29.68;28.53;101327.59;5099627;28;20044;-60
2022/07/19 09:18:24;;;;;;;21.83;4.57;;;;;;;29.77;28.81;101327.94;5099878;28;20055;-60
2022/07/19 09:20:54;;;;;;;18.23;4.18;;;;;;;30.01;28.24;101323.63;5097580;28;20051;-60
2022/07/19 09:23:22;;;;;;;17.35;4.55;;;;;;;30.31;27.00;101326.66;5094303;28;20036;-61
2022/07/19 09:25:58;;;;;;;18.33;4.55;;;;;;;30.28;28.42;101322.56;5103550;28;20043;-59
2022/07/19 09:28:29;;;;;;;16.63;4.30;;;;;;;30.47;27.59;101322.03;5093421;28;20054;-60
2022/07/19 09:30:58;;;;;;;21.23;4.45;;;;;;;30.60;28.54;101318.78;5098946;28;20393;-59
2022/07/19 09:33:27;;;;;;;16.52;4.20;;;;;;;30.80;27.69;101316.00;5108187;28;20067;-61
2022/07/19 09:35:57;;;;;;;17.83;4.30;;;;;;;30.90;26.09;101317.88;5095284;28;20051;-61
2022/07/19 09:38:28;;;;;;;15.73;4.13;;;;;;;31.10;25.90;101319.78;5104121;28;20035;-60
2022/07/19 09:41:12;;;;;;;11.60;4.13;;;;;;;31.27;25.26;101316.75;5096803;28;20104;-60
2022/07/19 09:43:59;;;;;;;15.63;3.90;;;;;;;31.38;26.11;101317.50;5099107;28;20320;-60
2022/07/19 09:46:39;;;;;;;13.15;4.53;;;;;;;31.65;25.08;101305.34;5103480;28;20140;-59
2022/07/19 09:49:08;;;;;;;12.48;4.05;;;;;;;31.80;25.46;101308.03;5072275;28;20407;-58
2022/07/19 09:51:38;;;;;;;12.73;4.40;;;;;;;31.87;24.93;101302.19;5074385;28;20037;-60
2022/07/19 09:54:06;;;;;;;14.48;4.10;;;;;;;31.87;24.38;101300.28;5094517;28;20039;-60
2022/07/19 09:56:33;;;;;;;13.82;4.07;;;;;;;31.93;24.19;101301.88;5096367;28;20484;-58
2022/07/19 09:59:00;;;;;;;17.70;4.50;;;;;;;32.10;24.23;101298.78;5109274;28;20485;-58
2022/07/19 10:01:28;;;;;;;12.85;4.43;;;;;;;32.28;25.28;101289.03;5090454;28;20052;-60
2022/07/19 10:04:02;;;;;;;17.08;4.50;;;;;;;32.54;23.78;101299.78;5096398;28;20039;-61
2022/07/19 10:06:30;;;;;;;14.30;3.95;;;;;;;32.60;24.48;101289.59;5096602;28;20516;-61
2022/07/19 10:08:57;;;;;;;12.15;4.28;;;;;;;32.78;23.13;101305.38;5088976;28;20058;-61
2022/07/19 10:11:25;;;;;;;13.63;4.47;;;;;;;32.74;24.33;101285.06;5085318;28;20097;-59
2022/07/19 10:13:53;;;;;;;21.77;4.13;;;;;;;33.06;23.86;101292.69;5098145;28;20040;-61
2022/07/19 10:16:36;;;;;;;14.38;4.10;;;;;;;33.36;22.43;101292.63;5082671;28;20047;-59
2022/07/19 10:19:22;;;;;;;18.83;4.45;;;;;;;33.60;23.11;101290.66;5096220;28;20043;-61
2022/07/19 10:21:50;;;;;;;14.38;4.10;;;;;;;33.76;22.59;101285.78;5099836;28;20041;-59
2022/07/19 10:24:47;;;;;;;13.05;4.40;;;;;;;33.93;20.25;101289.91;5114662;28;20039;-61
2022/07/19 10:27:16;;;;;;;9.88;3.90;;;;;;;34.04;20.24;101285.91;5110673;28;20050;-59
2022/07/19 10:29:43;;;;;;;19.45;3.83;;;;;;;34.13;20.48;101281.38;5101644;28;20047;-60
2022/07/19 10:32:13;;;;;;;20.58;4.35;;;;;;;34.23;20.05;101269.38;5089564;28;20048;-60
2022/07/19 10:34:41;;;;;;;16.47;4.03;;;;;;;34.31;21.88;101279.72;5091418;28;20105;-60
2022/07/19 10:37:09;;;;;;;13.50;3.70;;;;;;;34.48;20.66;101281.91;5097109;28;20052;-60
2022/07/19 10:39:38;;;;;;;12.63;3.58;;;;;;;34.54;20.76;101269.66;5097018;28;20513;-60
2022/07/19 10:50:17;;;;;;;15.35;3.78;;;;;;;34.93;19.52;101265.66;5125608;27;20384;-60
2022/07/19 10:52:45;;;;;;;13.52;3.97;;;;;;;35.13;19.48;101258.06;5116026;27;20036;-59
2022/07/19 10:58:09;;;;;;;15.18;4.00;;;;;;;35.34;18.36;101255.72;5068041;28;20380;-60
2022/07/19 11:00:51;;;;;;;8.93;3.60;;;;;;;35.31;19.00;101248.91;5067616;28;20048;-61
2022/07/19 11:06:00;;;;;;;13.70;3.47;;;;;;;35.47;17.94;101248.53;5117445;27;20357;-61
2022/07/19 11:08:42;;;;;;;10.98;3.13;;;;;;;35.55;17.31;101239.53;5121391;28;20078;-61
2022/07/19 11:11:12;;;;;;;11.73;2.92;;;;;;;35.64;18.04;101242.34;5108829;28;20039;-61
2022/07/19 11:13:43;;;;;;;13.90;3.43;;;;;;;35.79;18.90;101239.28;5107642;28;20493;-61
2022/07/19 11:16:10;;;;;;;14.32;3.40;;;;;;;35.94;17.38;101233.38;5107603;28;20727;-61
2022/07/19 11:18:39;;;;;;;18.20;3.55;;;;;;;35.94;18.58;101230.59;5097207;28;20428;-59
2022/07/19 11:21:07;;;;;;;17.92;3.85;;;;;;;36.02;20.47;101226.28;5106041;28;20393;-60
2022/07/19 11:23:36;;;;;;;10.43;3.15;;;;;;;36.08;20.07;101224.22;5094755;28;20056;-62
2022/07/19 11:26:17;;;;;;;14.75;3.08;;;;;;;36.17;19.67;101216.78;5106067;27;20068;-60
2022/07/19 11:28:46;;;;;;;19.38;3.60;;;;;;;36.14;17.19;101217.41;5115922;28;20493;-60
2022/07/19 11:31:18;;;;;;;12.30;3.53;;;;;;;36.08;17.13;101216.75;5129738;28;20135;-60
2022/07/19 11:33:47;;;;;;;11.38;3.38;;;;;;;36.22;19.77;101216.69;5123351;27;20043;-60
2022/07/19 11:36:15;;;;;;;14.55;3.42;;;;;;;36.24;18.97;101219.94;5105573;28;20071;-60
2022/07/19 11:38:46;;;;;;;19.35;3.72;;;;;;;36.18;18.18;101210.13;5104810;28;20079;-59